Time;durP1;ratioP1;P1;durP2;ratioP2;P2;SDS_P1;SDS_P2;PMS_P1;PMS_P2;Temp;Humidity;BMP_temperature;BMP_pressure;BME280_temperature;BME280_humidity;BME280_pressure;Samples;Min_cycle;Max_cycle;Signal;HPM_P1;HPM_P2
2022/11/20 00:02:07;;;;;;;;;9.00;9.00;;;;;;;;5078453;27;45481;-77
2022/11/20 00:04:33;;;;;;;;;12.75;10.75;;;;;;;;5080418;27;45244;-77
2022/11/20 00:06:58;;;;;;;;;11.00;11.00;;;;;;;;5079872;28;45076;-77
2022/11/20 00:09:23;;;;;;;;;12.25;11.25;;;;;;;;5080857;27;45527;-77
2022/11/20 00:11:48;;;;;;;;;12.75;9.00;;;;;;;;5080061;27;45201;-76
2022/11/20 00:14:13;;;;;;;;;14.25;11.00;;;;;;;;5082915;27;45565;-77
2022/11/20 00:16:39;;;;;;;;;14.00;12.00;;;;;;;;5079662;27;45678;-77
2022/11/20 00:19:04;;;;;;;;;14.75;12.00;;;;;;;;5085951;27;47220;-77
2022/11/20 00:21:29;;;;;;;;;15.50;15.00;;;;;;;;5081614;27;45227;-77
2022/11/20 00:23:55;;;;;;;;;10.25;9.25;;;;;;;;5081810;27;45473;-77
2022/11/20 00:26:22;;;;;;;;;14.50;13.25;;;;;;;;5088775;27;45620;-77
2022/11/20 00:28:57;;;;;;;;;16.00;14.75;;;;;;;;5088691;27;45326;-77
2022/11/20 00:31:23;;;;;;;;;10.25;10.25;;;;;;;;5092894;27;45242;-77
2022/11/20 00:33:48;;;;;;;;;13.50;11.00;;;;;;;;5083786;27;45747;-76
2022/11/20 00:36:13;;;;;;;;;14.25;11.50;;;;;;;;5084019;27;45438;-77
2022/11/20 00:38:39;;;;;;;;;11.75;9.25;;;;;;;;5081591;27;45390;-77
2022/11/20 00:41:05;;;;;;;;;12.25;10.25;;;;;;;;5082878;27;45632;-77
2022/11/20 00:43:30;;;;;;;;;12.00;12.00;;;;;;;;5081089;27;45415;-77
2022/11/20 00:45:56;;;;;;;;;22.25;18.00;;;;;;;;5079032;27;45374;-77
2022/11/20 00:48:21;;;;;;;;;10.75;8.75;;;;;;;;5080391;27;47794;-76
2022/11/20 00:50:47;;;;;;;;;11.25;10.25;;;;;;;;5080027;27;45410;-77
2022/11/20 00:53:12;;;;;;;;;15.75;14.00;;;;;;;;5080963;27;45580;-76
2022/11/20 00:55:37;;;;;;;;;17.25;12.75;;;;;;;;5079091;27;45399;-77
2022/11/20 00:58:02;;;;;;;;;41.00;35.50;;;;;;;;5080890;27;45366;-77
2022/11/20 01:00:27;;;;;;;;;21.00;18.50;;;;;;;;5086103;27;45390;-77
2022/11/20 01:02:55;;;;;;;;;30.50;27.75;;;;;;;;5088609;27;45615;-76
2022/11/20 01:05:20;;;;;;;;;18.25;14.00;;;;;;;;5078411;27;45233;-76
2022/11/20 01:07:45;;;;;;;;;46.25;35.50;;;;;;;;5079250;27;45437;-76
2022/11/20 01:10:10;;;;;;;;;27.50;21.75;;;;;;;;5081895;27;45331;-76
2022/11/20 01:12:36;;;;;;;;;10.00;10.00;;;;;;;;5087051;27;45625;-76
2022/11/20 01:15:01;;;;;;;;;12.25;10.00;;;;;;;;5079927;27;45377;-76
2022/11/20 01:17:26;;;;;;;;;15.00;11.00;;;;;;;;5092278;27;45250;-76
2022/11/20 01:19:51;;;;;;;;;14.75;12.50;;;;;;;;5082836;27;45233;-75
2022/11/20 01:22:16;;;;;;;;;9.00;8.00;;;;;;;;5079307;27;45274;-76
2022/11/20 01:24:42;;;;;;;;;25.00;22.50;;;;;;;;5080581;27;45741;-76
2022/11/20 01:27:07;;;;;;;;;22.00;19.25;;;;;;;;5079304;27;46285;-76
2022/11/20 01:29:32;;;;;;;;;16.75;11.50;;;;;;;;5079100;27;46850;-76
2022/11/20 01:31:57;;;;;;;;;12.25;10.00;;;;;;;;5078990;27;45168;-76
2022/11/20 01:34:23;;;;;;;;;10.25;8.50;;;;;;;;5083093;27;45511;-76
2022/11/20 01:36:48;;;;;;;;;12.50;8.25;;;;;;;;5091309;27;47227;-76
2022/11/20 01:39:18;;;;;;;;;12.25;9.50;;;;;;;;5078285;27;45444;-76
2022/11/20 01:44:48;;;;;;;;;9.75;9.25;;;;;;;;5082149;27;45330;-78
2022/11/20 01:47:15;;;;;;;;;10.50;9.00;;;;;;;;5078554;27;46130;-76
2022/11/20 01:49:42;;;;;;;;;11.25;9.75;;;;;;;;5080574;27;45237;-76
2022/11/20 01:52:13;;;;;;;;;10.75;8.75;;;;;;;;5089805;27;45433;-76
2022/11/20 01:54:40;;;;;;;;;9.75;8.75;;;;;;;;5091817;27;45850;-76
2022/11/20 01:57:06;;;;;;;;;9.00;5.75;;;;;;;;5095975;27;45472;-76
2022/11/20 01:59:33;;;;;;;;;10.25;8.00;;;;;;;;5085294;27;45417;-76
2022/11/20 02:01:58;;;;;;;;;6.00;6.00;;;;;;;;5080785;27;45492;-76
2022/11/20 02:04:24;;;;;;;;;8.50;7.00;;;;;;;;5084606;27;45480;-76
2022/11/20 02:06:53;;;;;;;;;7.00;7.00;;;;;;;;5084526;27;45307;-76
2022/11/20 02:09:18;;;;;;;;;9.25;8.25;;;;;;;;5096991;27;45315;-76
2022/11/20 02:11:43;;;;;;;;;10.50;7.00;;;;;;;;5082576;27;45242;-76
2022/11/20 02:14:09;;;;;;;;;7.75;7.75;;;;;;;;5083765;27;45505;-76
2022/11/20 02:16:40;;;;;;;;;9.00;7.00;;;;;;;;5081620;27;45388;-76
2022/11/20 02:19:07;;;;;;;;;6.75;6.25;;;;;;;;5085701;27;45433;-76
2022/11/20 02:21:36;;;;;;;;;6.00;6.00;;;;;;;;5081749;27;45582;-75
2022/11/20 02:24:13;;;;;;;;;8.25;6.25;;;;;;;;5089041;27;45855;-76
2022/11/20 02:26:50;;;;;;;;;8.50;7.00;;;;;;;;5097177;27;46760;-76
2022/11/20 02:29:24;;;;;;;;;9.50;8.00;;;;;;;;5083326;27;45437;-76
2022/11/20 02:31:50;;;;;;;;;8.25;8.00;;;;;;;;5081406;27;45395;-75
2022/11/20 02:34:15;;;;;;;;;7.00;4.00;;;;;;;;5093738;27;46931;-77
2022/11/20 02:36:41;;;;;;;;;10.00;7.00;;;;;;;;5081337;27;45616;-76
2022/11/20 02:39:06;;;;;;;;;5.75;5.75;;;;;;;;5082778;27;45682;-76
2022/11/20 02:41:33;;;;;;;;;7.25;7.25;;;;;;;;5081837;27;45347;-76
2022/11/20 02:43:58;;;;;;;;;7.50;5.75;;;;;;;;5085199;27;45465;-76
2022/11/20 02:46:23;;;;;;;;;7.50;7.50;;;;;;;;5081076;27;45279;-76
2022/11/20 02:48:48;;;;;;;;;6.00;4.00;;;;;;;;5086284;27;45460;-76
2022/11/20 02:51:13;;;;;;;;;8.75;7.25;;;;;;;;5081318;27;45294;-75
2022/11/20 02:53:38;;;;;;;;;8.00;8.00;;;;;;;;5085577;27;45431;-76
2022/11/20 02:56:04;;;;;;;;;13.25;9.25;;;;;;;;5080998;27;46993;-76
2022/11/20 02:58:29;;;;;;;;;7.75;7.25;;;;;;;;5090386;27;45207;-76
2022/11/20 03:00:54;;;;;;;;;10.25;7.50;;;;;;;;5087804;27;45258;-76
2022/11/20 03:03:19;;;;;;;;;6.75;6.75;;;;;;;;5085003;27;45720;-76
2022/11/20 03:05:45;;;;;;;;;10.50;7.00;;;;;;;;5080965;27;46573;-76
2022/11/20 03:08:10;;;;;;;;;8.00;7.00;;;;;;;;5081704;27;45407;-77
2022/11/20 03:10:35;;;;;;;;;7.75;7.75;;;;;;;;5084100;27;45455;-77
2022/11/20 03:13:00;;;;;;;;;9.00;7.75;;;;;;;;5082593;27;46179;-77
2022/11/20 03:15:25;;;;;;;;;8.75;7.00;;;;;;;;5078791;27;47871;-77
2022/11/20 03:17:55;;;;;;;;;9.00;8.00;;;;;;;;5082446;27;45250;-76
2022/11/20 03:20:20;;;;;;;;;13.25;11.50;;;;;;;;5080812;27;45298;-77
2022/11/20 03:22:45;;;;;;;;;18.00;13.25;;;;;;;;5082174;27;45467;-76
2022/11/20 03:25:10;;;;;;;;;15.75;10.25;;;;;;;;5079555;27;47451;-76
2022/11/20 03:27:36;;;;;;;;;16.75;13.50;;;;;;;;5080759;27;45535;-76
2022/11/20 03:30:01;;;;;;;;;15.75;12.75;;;;;;;;5082249;27;45309;-77
2022/11/20 03:32:26;;;;;;;;;13.50;10.50;;;;;;;;5079165;27;47083;-77
2022/11/20 03:34:51;;;;;;;;;12.50;9.75;;;;;;;;5084454;27;45271;-77
2022/11/20 03:37:17;;;;;;;;;8.00;8.00;;;;;;;;5080594;27;45375;-76
2022/11/20 03:39:42;;;;;;;;;8.00;6.75;;;;;;;;5089989;27;45543;-76
2022/11/20 03:42:44;;;;;;;;;7.00;7.00;;;;;;;;5080211;27;45489;-76
2022/11/20 03:44:53;;;;;;;;;12.50;9.00;;;;;;;;5081707;27;45519;-76
2022/11/20 03:47:18;;;;;;;;;7.00;7.00;;;;;;;;5079813;27;45537;-77
2022/11/20 03:49:43;;;;;;;;;7.25;3.50;;;;;;;;5082581;27;45447;-77
2022/11/20 03:52:09;;;;;;;;;6.75;6.75;;;;;;;;5080090;27;45416;-77
2022/11/20 03:54:34;;;;;;;;;7.00;6.00;;;;;;;;5083142;27;46094;-76
2022/11/20 03:56:59;;;;;;;;;7.00;7.00;;;;;;;;5086093;27;45154;-77
2022/11/20 03:59:24;;;;;;;;;8.75;4.00;;;;;;;;5086732;27;45587;-77
2022/11/20 04:01:49;;;;;;;;;6.25;6.00;;;;;;;;5091792;27;47384;-76
2022/11/20 04:04:15;;;;;;;;;8.00;7.00;;;;;;;;5092246;27;45325;-76
2022/11/20 04:06:40;;;;;;;;;14.00;8.00;;;;;;;;5090676;27;45379;-76
2022/11/20 04:09:05;;;;;;;;;4.50;4.00;;;;;;;;5087191;27;45579;-76
2022/11/20 04:11:32;;;;;;;;;7.25;4.00;;;;;;;;5093709;27;45486;-76
2022/11/20 04:13:58;;;;;;;;;6.50;6.00;;;;;;;;5081255;27;45480;-76
2022/11/20 04:16:24;;;;;;;;;6.25;4.00;;;;;;;;5080876;27;45221;-77
2022/11/20 04:18:53;;;;;;;;;3.75;3.75;;;;;;;;5082065;27;45390;-78
2022/11/20 04:21:19;;;;;;;;;4.50;3.00;;;;;;;;5079386;27;46220;-77
2022/11/20 04:23:44;;;;;;;;;3.50;3.50;;;;;;;;5081906;27;46518;-77
2022/11/20 04:26:11;;;;;;;;;9.75;6.50;;;;;;;;5078055;27;45233;-77
2022/11/20 04:28:36;;;;;;;;;7.00;6.75;;;;;;;;5081765;27;45287;-77
2022/11/20 04:31:09;;;;;;;;;5.75;4.00;;;;;;;;5079345;27;45540;-77
2022/11/20 04:33:35;;;;;;;;;7.00;4.50;;;;;;;;5081362;27;45268;-77
2022/11/20 04:36:05;;;;;;;;;9.50;6.00;;;;;;;;5082617;27;45456;-77
2022/11/20 04:38:31;;;;;;;;;7.25;4.00;;;;;;;;5091375;27;45288;-76
2022/11/20 04:40:58;;;;;;;;;3.75;2.00;;;;;;;;5081723;27;45312;-76
2022/11/20 04:43:23;;;;;;;;;6.75;4.00;;;;;;;;5084500;27;45433;-76
2022/11/20 04:45:55;;;;;;;;;6.00;4.00;;;;;;;;5078949;27;45432;-76
2022/11/20 04:48:20;;;;;;;;;3.75;3.75;;;;;;;;5081718;27;45374;-76
2022/11/20 04:50:45;;;;;;;;;4.00;4.00;;;;;;;;5084704;27;45324;-76
2022/11/20 04:53:10;;;;;;;;;8.00;4.50;;;;;;;;5094863;27;47339;-76
2022/11/20 04:55:35;;;;;;;;;5.00;5.00;;;;;;;;5080979;27;45310;-76
2022/11/20 04:58:01;;;;;;;;;6.00;4.00;;;;;;;;5085367;27;45298;-76
2022/11/20 05:00:26;;;;;;;;;6.25;4.50;;;;;;;;5086037;27;45698;-76
2022/11/20 05:02:51;;;;;;;;;0.25;0.25;;;;;;;;5079539;27;46293;-76
2022/11/20 05:05:16;;;;;;;;;4.50;3.25;;;;;;;;5078705;27;45256;-76
2022/11/20 05:07:41;;;;;;;;;3.00;3.00;;;;;;;;5080161;27;45498;-76
2022/11/20 05:10:07;;;;;;;;;2.00;2.00;;;;;;;;5083333;27;45758;-76
2022/11/20 05:12:32;;;;;;;;;3.00;3.00;;;;;;;;5089176;27;45541;-76
2022/11/20 05:14:57;;;;;;;;;7.25;5.75;;;;;;;;5080545;27;45297;-76
2022/11/20 05:17:22;;;;;;;;;4.00;3.00;;;;;;;;5078820;27;44969;-76
2022/11/20 05:19:47;;;;;;;;;7.00;4.50;;;;;;;;5082853;27;47464;-76
2022/11/20 05:22:13;;;;;;;;;3.50;3.00;;;;;;;;5078897;27;45478;-76
2022/11/20 05:24:38;;;;;;;;;5.25;3.50;;;;;;;;5080515;27;45405;-76
2022/11/20 05:27:03;;;;;;;;;3.75;2.50;;;;;;;;5078008;27;45361;-76
2022/11/20 05:29:28;;;;;;;;;5.00;3.75;;;;;;;;5087875;27;45447;-76
2022/11/20 05:31:53;;;;;;;;;2.00;2.00;;;;;;;;5078403;27;45326;-77
2022/11/20 05:34:19;;;;;;;;;2.75;2.75;;;;;;;;5083255;27;45432;-76
2022/11/20 05:36:44;;;;;;;;;3.50;2.75;;;;;;;;5078771;27;45475;-76
2022/11/20 05:39:09;;;;;;;;;3.25;3.00;;;;;;;;5080500;27;45130;-76
2022/11/20 05:41:34;;;;;;;;;3.00;3.00;;;;;;;;5078381;27;45306;-76
2022/11/20 05:43:59;;;;;;;;;7.00;4.00;;;;;;;;5084890;27;45425;-77
2022/11/20 05:46:25;;;;;;;;;4.75;4.00;;;;;;;;5090316;27;45216;-78
2022/11/20 05:48:50;;;;;;;;;2.75;2.75;;;;;;;;5092901;27;45326;-77
2022/11/20 05:51:16;;;;;;;;;3.25;3.25;;;;;;;;5084717;27;46372;-78
2022/11/20 05:53:42;;;;;;;;;2.00;2.00;;;;;;;;5090738;27;45220;-76
2022/11/20 05:56:12;;;;;;;;;2.00;2.00;;;;;;;;5095526;27;45458;-78
2022/11/20 05:58:38;;;;;;;;;2.50;2.50;;;;;;;;5080151;27;45524;-77
2022/11/20 06:01:04;;;;;;;;;1.50;1.50;;;;;;;;5083233;27;45243;-78
2022/11/20 06:03:29;;;;;;;;;3.75;2.75;;;;;;;;5080317;27;45443;-76
2022/11/20 06:05:55;;;;;;;;;2.50;2.00;;;;;;;;5078124;28;45567;-75
2022/11/20 06:08:20;;;;;;;;;6.00;2.00;;;;;;;;5081826;27;45481;-76
2022/11/20 06:10:45;;;;;;;;;2.75;2.00;;;;;;;;5078978;27;45401;-76
2022/11/20 06:13:10;;;;;;;;;3.75;3.75;;;;;;;;5077797;27;45380;-77
2022/11/20 06:15:35;;;;;;;;;3.00;3.00;;;;;;;;5078176;28;45196;-77
2022/11/20 06:18:00;;;;;;;;;2.75;2.75;;;;;;;;5078043;27;45172;-78
2022/11/20 06:20:26;;;;;;;;;3.00;3.00;;;;;;;;5078193;28;46684;-78
2022/11/20 06:22:51;;;;;;;;;2.00;2.00;;;;;;;;5079403;27;45153;-77
2022/11/20 06:25:16;;;;;;;;;6.00;3.00;;;;;;;;5084956;27;45231;-76
2022/11/20 06:27:41;;;;;;;;;2.25;2.00;;;;;;;;5086373;27;45165;-76
2022/11/20 06:30:07;;;;;;;;;2.50;2.00;;;;;;;;5078984;27;45278;-77
2022/11/20 06:32:32;;;;;;;;;4.00;2.25;;;;;;;;5084487;27;45429;-76
2022/11/20 06:34:57;;;;;;;;;2.25;2.00;;;;;;;;5084976;27;45343;-76
2022/11/20 06:37:23;;;;;;;;;3.00;3.00;;;;;;;;5090709;27;45601;-76
2022/11/20 06:39:48;;;;;;;;;3.00;2.00;;;;;;;;5084405;27;45308;-76
2022/11/20 06:42:13;;;;;;;;;4.00;4.00;;;;;;;;5083670;27;45250;-77
2022/11/20 06:44:38;;;;;;;;;6.00;2.00;;;;;;;;5084545;27;45396;-76
2022/11/20 06:47:03;;;;;;;;;2.00;2.00;;;;;;;;5090051;27;48063;-77
2022/11/20 06:49:29;;;;;;;;;4.00;2.00;;;;;;;;5086030;27;46109;-77
2022/11/20 06:51:54;;;;;;;;;3.00;2.00;;;;;;;;5090333;27;45291;-76
2022/11/20 06:54:19;;;;;;;;;2.00;2.00;;;;;;;;5086547;27;45519;-76
2022/11/20 06:56:48;;;;;;;;;3.25;2.00;;;;;;;;5088730;27;45492;-77
2022/11/20 06:59:13;;;;;;;;;2.00;2.00;;;;;;;;5086920;27;45486;-76
2022/11/20 07:01:38;;;;;;;;;3.75;2.00;;;;;;;;5093185;27;46416;-77
2022/11/20 07:04:03;;;;;;;;;2.50;2.50;;;;;;;;5085261;27;45398;-77
2022/11/20 07:06:29;;;;;;;;;5.00;2.50;;;;;;;;5091337;27;45480;-76
2022/11/20 07:08:54;;;;;;;;;3.00;3.00;;;;;;;;5087112;27;46966;-76
2022/11/20 07:11:19;;;;;;;;;3.00;2.00;;;;;;;;5092873;27;45493;-77
2022/11/20 07:13:44;;;;;;;;;5.00;3.00;;;;;;;;5086312;27;45449;-77
2022/11/20 07:16:09;;;;;;;;;2.00;1.00;;;;;;;;5089102;27;45377;-77
2022/11/20 07:18:35;;;;;;;;;1.75;1.75;;;;;;;;5084099;27;47873;-78
2022/11/20 07:21:01;;;;;;;;;2.00;2.00;;;;;;;;5090542;27;45437;-79
2022/11/20 07:23:26;;;;;;;;;2.75;2.75;;;;;;;;5086844;27;45236;-78
2022/11/20 07:25:51;;;;;;;;;2.00;2.00;;;;;;;;5079444;27;45149;-78
2022/11/20 07:28:17;;;;;;;;;3.00;3.00;;;;;;;;5081567;27;46304;-78
2022/11/20 07:30:42;;;;;;;;;3.75;2.25;;;;;;;;5080714;27;45351;-79
2022/11/20 07:33:07;;;;;;;;;1.00;1.00;;;;;;;;5079884;27;45370;-78
2022/11/20 07:35:32;;;;;;;;;2.25;2.00;;;;;;;;5086244;27;44762;-77
2022/11/20 07:37:58;;;;;;;;;1.25;1.25;;;;;;;;5082496;27;45366;-78
2022/11/20 07:40:23;;;;;;;;;2.00;2.00;;;;;;;;5087880;27;45314;-77
2022/11/20 07:42:54;;;;;;;;;3.00;2.00;;;;;;;;5099806;27;45509;-77
2022/11/20 07:45:20;;;;;;;;;3.50;2.00;;;;;;;;5090423;27;45439;-77
2022/11/20 07:47:46;;;;;;;;;4.00;3.00;;;;;;;;5080572;27;45366;-77
2022/11/20 07:50:11;;;;;;;;;3.00;3.00;;;;;;;;5080749;27;45494;-77
2022/11/20 07:52:37;;;;;;;;;3.00;3.00;;;;;;;;5080264;27;45548;-77
2022/11/20 07:55:02;;;;;;;;;2.75;2.00;;;;;;;;5085214;27;44830;-78
2022/11/20 07:57:27;;;;;;;;;3.00;3.00;;;;;;;;5090136;27;45284;-78
2022/11/20 07:59:52;;;;;;;;;4.50;4.50;;;;;;;;5082234;27;45498;-77
2022/11/20 08:02:17;;;;;;;;;4.50;3.75;;;;;;;;5080016;27;45414;-77
2022/11/20 08:04:43;;;;;;;;;9.25;5.75;;;;;;;;5081618;27;45239;-78
2022/11/20 08:07:08;;;;;;;;;4.00;3.50;;;;;;;;5079483;27;45280;-77
2022/11/20 08:09:33;;;;;;;;;6.50;3.00;;;;;;;;5083952;27;45290;-77
2022/11/20 08:14:42;;;;;;;;;3.00;3.00;;;;;;;;5078728;27;45249;-78
2022/11/20 08:17:08;;;;;;;;;10.00;6.00;;;;;;;;5081894;27;46683;-77
2022/11/20 08:19:33;;;;;;;;;4.00;3.50;;;;;;;;5084597;27;45204;-77
2022/11/20 08:21:58;;;;;;;;;5.50;4.00;;;;;;;;5089158;27;45176;-78
2022/11/20 08:24:24;;;;;;;;;8.00;4.75;;;;;;;;5083697;27;45211;-78
2022/11/20 08:26:49;;;;;;;;;5.00;5.00;;;;;;;;5079282;28;46219;-78
2022/11/20 08:29:15;;;;;;;;;11.50;11.50;;;;;;;;5081116;27;47314;-78
2022/11/20 08:31:40;;;;;;;;;20.25;16.50;;;;;;;;5094700;27;45466;-78
2022/11/20 08:34:05;;;;;;;;;3.00;3.00;;;;;;;;5089977;27;45445;-78
2022/11/20 08:36:32;;;;;;;;;5.75;4.00;;;;;;;;5094157;27;46090;-79
2022/11/20 08:38:57;;;;;;;;;3.75;3.75;;;;;;;;5081896;27;45467;-77
2022/11/20 08:41:30;;;;;;;;;6.25;2.00;;;;;;;;5082856;27;45291;-78
2022/11/20 08:43:57;;;;;;;;;3.50;3.25;;;;;;;;5084217;27;45726;-78
2022/11/20 08:46:23;;;;;;;;;7.50;5.25;;;;;;;;5080522;27;45536;-78
2022/11/20 08:48:48;;;;;;;;;5.75;4.25;;;;;;;;5082335;27;45345;-77
2022/11/20 08:51:14;;;;;;;;;6.25;4.00;;;;;;;;5084749;27;45483;-77
2022/11/20 08:53:39;;;;;;;;;4.00;4.00;;;;;;;;5082293;27;45298;-76
2022/11/20 08:56:05;;;;;;;;;4.25;4.25;;;;;;;;5082026;27;46251;-77
2022/11/20 08:58:30;;;;;;;;;4.00;4.00;;;;;;;;5091101;27;45494;-76
2022/11/20 09:00:55;;;;;;;;;7.50;4.25;;;;;;;;5079733;27;45216;-77
2022/11/20 09:03:20;;;;;;;;;6.00;4.25;;;;;;;;5078552;27;45520;-77
2022/11/20 09:05:45;;;;;;;;;7.75;4.50;;;;;;;;5087770;27;45254;-76
2022/11/20 09:08:11;;;;;;;;;3.75;3.50;;;;;;;;5086064;27;45430;-77
2022/11/20 09:10:39;;;;;;;;;8.25;5.00;;;;;;;;5078649;27;45306;-77
2022/11/20 09:13:04;;;;;;;;;7.00;4.50;;;;;;;;5079323;27;46003;-77
2022/11/20 09:15:29;;;;;;;;;5.00;4.25;;;;;;;;5079062;27;46250;-77
2022/11/20 09:17:55;;;;;;;;;7.00;5.00;;;;;;;;5078607;27;45249;-77
2022/11/20 09:20:21;;;;;;;;;4.50;4.50;;;;;;;;5078063;27;45287;-76
2022/11/20 09:22:46;;;;;;;;;9.75;9.75;;;;;;;;5076699;27;45525;-76
2022/11/20 09:25:11;;;;;;;;;6.75;6.75;;;;;;;;5078090;27;45292;-76
2022/11/20 09:27:37;;;;;;;;;10.00;9.50;;;;;;;;5078359;27;45561;-76
2022/11/20 09:30:03;;;;;;;;;10.25;9.00;;;;;;;;5078525;27;45327;-76
2022/11/20 09:32:28;;;;;;;;;9.75;9.25;;;;;;;;5077719;27;45377;-76
2022/11/20 09:34:53;;;;;;;;;13.50;9.75;;;;;;;;5087846;27;45573;-76
2022/11/20 09:37:18;;;;;;;;;11.00;8.25;;;;;;;;5078770;27;45280;-75
2022/11/20 09:39:44;;;;;;;;;13.25;10.00;;;;;;;;5084762;27;45453;-76
2022/11/20 09:42:18;;;;;;;;;10.50;9.25;;;;;;;;5078695;28;45291;-76
2022/11/20 09:45:09;;;;;;;;;11.75;8.75;;;;;;;;5094261;27;47301;-76
2022/11/20 09:47:59;;;;;;;;;10.50;10.00;;;;;;;;5059132;27;45542;-77
2022/11/20 09:50:43;;;;;;;;;11.25;9.75;;;;;;;;5078153;27;45360;-76
2022/11/20 09:53:13;;;;;;;;;8.00;8.00;;;;;;;;5080274;27;45323;-76
2022/11/20 09:55:39;;;;;;;;;32.00;27.50;;;;;;;;5081562;27;48318;-77
2022/11/20 09:58:13;;;;;;;;;12.50;11.25;;;;;;;;5084015;27;44788;-76
2022/11/20 10:00:39;;;;;;;;;14.00;12.50;;;;;;;;5080495;27;45327;-76
2022/11/20 10:03:16;;;;;;;;;11.00;11.00;;;;;;;;5088639;27;45427;-76
2022/11/20 10:05:44;;;;;;;;;12.50;10.50;;;;;;;;5090266;27;45673;-75
2022/11/20 10:08:31;;;;;;;;;14.25;11.00;;;;;;;;5092235;27;45508;-75
2022/11/20 10:11:15;;;;;;;;;16.00;12.00;;;;;;;;5087495;27;45341;-74
2022/11/20 10:13:56;;;;;;;;;14.25;13.50;;;;;;;;5083977;27;45535;-74
2022/11/20 10:16:24;;;;;;;;;14.75;13.75;;;;;;;;5081027;27;45330;-75
2022/11/20 10:19:11;;;;;;;;;10.50;10.50;;;;;;;;5086635;27;45422;-75
2022/11/20 10:21:55;;;;;;;;;14.75;11.75;;;;;;;;5081369;27;45197;-75
2022/11/20 10:24:39;;;;;;;;;9.25;9.00;;;;;;;;5083590;27;45270;-75
2022/11/20 10:27:07;;;;;;;;;9.50;9.25;;;;;;;;5080724;27;45702;-75
2022/11/20 10:29:33;;;;;;;;;12.25;9.00;;;;;;;;5092160;27;45445;-75
2022/11/20 10:32:04;;;;;;;;;12.75;10.75;;;;;;;;5081101;27;45389;-75
2022/11/20 10:34:46;;;;;;;;;15.75;11.25;;;;;;;;5084702;27;45557;-77
2022/11/20 10:37:14;;;;;;;;;9.50;9.00;;;;;;;;5094397;27;45256;-74
2022/11/20 10:39:45;;;;;;;;;9.00;7.00;;;;;;;;5092185;27;45528;-74
2022/11/20 10:42:14;;;;;;;;;9.00;8.00;;;;;;;;5080996;27;45322;-74
2022/11/20 10:47:25;;;;;;;;;6.25;6.25;;;;;;;;5080574;27;45792;-75
2022/11/20 10:49:55;;;;;;;;;9.00;9.00;;;;;;;;5084074;27;45422;-76
2022/11/20 10:52:39;;;;;;;;;8.00;4.00;;;;;;;;5081511;27;45346;-76
2022/11/20 10:55:22;;;;;;;;;5.00;5.00;;;;;;;;5086779;27;45243;-76
2022/11/20 10:57:54;;;;;;;;;5.25;5.25;;;;;;;;5084916;27;45419;-76
2022/11/20 11:00:19;;;;;;;;;5.00;5.00;;;;;;;;5078744;27;45401;-76
2022/11/20 11:02:48;;;;;;;;;10.75;5.75;;;;;;;;5078315;27;45572;-76
2022/11/20 11:05:13;;;;;;;;;10.25;8.25;;;;;;;;5081197;27;45450;-76
2022/11/20 11:07:39;;;;;;;;;4.25;4.25;;;;;;;;5079939;27;45324;-74
2022/11/20 11:10:13;;;;;;;;;4.25;2.75;;;;;;;;5083238;27;45240;-76
2022/11/20 11:12:43;;;;;;;;;4.25;3.50;;;;;;;;5080465;27;44753;-78
2022/11/20 11:15:12;;;;;;;;;5.00;5.00;;;;;;;;5085138;27;46283;-77
2022/11/20 11:17:45;;;;;;;;;3.25;3.25;;;;;;;;5080526;27;45279;-78
2022/11/20 11:20:10;;;;;;;;;6.00;4.00;;;;;;;;5080155;27;45398;-78
2022/11/20 11:22:44;;;;;;;;;8.00;3.00;;;;;;;;5079983;27;45279;-78
2022/11/20 11:25:18;;;;;;;;;3.00;3.00;;;;;;;;5088828;27;45334;-77
2022/11/20 11:27:47;;;;;;;;;4.00;4.00;;;;;;;;5083721;27;46307;-78
2022/11/20 11:30:14;;;;;;;;;4.00;4.00;;;;;;;;5086296;27;45311;-78
2022/11/20 11:32:39;;;;;;;;;4.50;4.50;;;;;;;;5080630;27;45452;-76
2022/11/20 11:35:06;;;;;;;;;9.75;8.00;;;;;;;;5088606;27;45240;-76
2022/11/20 11:37:36;;;;;;;;;4.00;3.00;;;;;;;;5079618;27;45443;-78
2022/11/20 11:40:03;;;;;;;;;4.00;4.00;;;;;;;;5084986;27;45477;-78
2022/11/20 11:42:29;;;;;;;;;2.00;2.00;;;;;;;;5084941;27;45448;-78
2022/11/20 11:45:05;;;;;;;;;3.00;3.00;;;;;;;;5092196;27;45410;-79
2022/11/20 11:47:57;;;;;;;;;3.50;2.75;;;;;;;;5087566;27;45641;-77
2022/11/20 11:50:23;;;;;;;;;3.25;3.25;;;;;;;;5083920;27;45429;-77
2022/11/20 11:53:27;;;;;;;;;0.75;0.75;;;;;;;;5093716;27;45827;-77
2022/11/20 11:56:08;;;;;;;;;3.25;2.00;;;;;;;;5036406;28;46205;-77
2022/11/20 11:58:40;;;;;;;;;3.75;3.50;;;;;;;;5026282;28;47502;-79
2022/11/20 12:01:05;;;;;;;;;4.75;4.75;;;;;;;;5049163;27;45515;-76
2022/11/20 12:03:43;;;;;;;;;5.00;5.00;;;;;;;;5081980;27;45433;-76
2022/11/20 12:06:13;;;;;;;;;4.50;4.50;;;;;;;;5079741;27;45236;-76
2022/11/20 12:08:48;;;;;;;;;5.00;3.25;;;;;;;;5084435;27;46768;-77
2022/11/20 12:11:40;;;;;;;;;6.25;4.75;;;;;;;;5079368;27;45137;-77
2022/11/20 12:14:18;;;;;;;;;5.00;4.00;;;;;;;;5068012;27;45502;-78
2022/11/20 12:16:44;;;;;;;;;4.00;4.00;;;;;;;;5087213;27;45276;-78
2022/11/20 12:19:13;;;;;;;;;3.75;3.75;;;;;;;;5096550;27;48399;-78
2022/11/20 12:21:54;;;;;;;;;6.00;3.25;;;;;;;;5078082;27;45365;-79
2022/11/20 12:24:38;;;;;;;;;3.00;3.00;;;;;;;;5079324;27;45134;-77
2022/11/20 12:27:18;;;;;;;;;3.50;3.50;;;;;;;;5079023;27;45480;-76
2022/11/20 12:29:52;;;;;;;;;4.25;4.00;;;;;;;;5091484;27;47159;-77
2022/11/20 12:32:20;;;;;;;;;3.00;3.00;;;;;;;;5079145;27;45481;-77
2022/11/20 12:34:45;;;;;;;;;8.75;7.25;;;;;;;;5088869;27;45301;-76
2022/11/20 12:37:18;;;;;;;;;5.50;5.25;;;;;;;;5079023;27;45283;-76
2022/11/20 12:39:46;;;;;;;;;8.00;6.50;;;;;;;;5080984;27;45467;-75
2022/11/20 12:45:20;;;;;;;;;7.75;7.75;;;;;;;;5080753;27;45522;-76
2022/11/20 12:48:04;;;;;;;;;6.75;6.25;;;;;;;;5079770;27;45299;-75
2022/11/20 12:50:39;;;;;;;;;5.75;5.75;;;;;;;;5084355;27;45271;-79
2022/11/20 12:53:23;;;;;;;;;15.75;14.25;;;;;;;;5089381;27;45239;-78
2022/11/20 12:55:52;;;;;;;;;9.25;5.75;;;;;;;;5087882;27;45279;-79
2022/11/20 12:58:36;;;;;;;;;6.75;6.75;;;;;;;;5090663;27;45300;-81
2022/11/20 13:01:04;;;;;;;;;9.25;5.25;;;;;;;;5092316;27;46809;-77
2022/11/20 13:03:43;;;;;;;;;17.25;16.00;;;;;;;;5088241;27;45348;-76
2022/11/20 13:06:18;;;;;;;;;10.25;9.50;;;;;;;;5082651;27;45271;-77
2022/11/20 13:08:53;;;;;;;;;13.00;11.75;;;;;;;;5085326;27;46127;-77
2022/11/20 13:11:19;;;;;;;;;10.00;10.00;;;;;;;;5078365;27;45368;-77
2022/11/20 13:14:03;;;;;;;;;9.25;8.00;;;;;;;;5085218;27;45314;-77
2022/11/20 13:16:31;;;;;;;;;9.75;9.75;;;;;;;;5078637;27;45451;-76
2022/11/20 13:18:56;;;;;;;;;8.75;6.00;;;;;;;;5082067;27;46134;-76
2022/11/20 13:21:34;;;;;;;;;22.75;21.25;;;;;;;;5090345;27;46016;-75
2022/11/20 13:24:06;;;;;;;;;19.50;17.75;;;;;;;;5084712;27;45402;-75
2022/11/20 13:26:31;;;;;;;;;25.50;21.25;;;;;;;;5079445;27;45378;-75
2022/11/20 13:29:03;;;;;;;;;11.50;11.25;;;;;;;;5085151;27;45410;-75
2022/11/20 13:31:30;;;;;;;;;12.00;10.25;;;;;;;;5077060;28;47058;-72
2022/11/20 13:33:56;;;;;;;;;16.25;15.00;;;;;;;;5086617;27;45460;-75
2022/11/20 13:36:24;;;;;;;;;20.50;14.00;;;;;;;;5085312;27;45414;-72
2022/11/20 13:38:51;;;;;;;;;19.50;16.00;;;;;;;;5092370;27;46445;-73
2022/11/20 13:41:42;;;;;;;;;17.75;13.25;;;;;;;;5077605;27;45465;-75
2022/11/20 13:44:11;;;;;;;;;34.50;29.50;;;;;;;;5081667;27;45528;-78
2022/11/20 13:46:37;;;;;;;;;12.75;10.50;;;;;;;;5080957;27;45221;-77
2022/11/20 13:49:08;;;;;;;;;10.75;10.50;;;;;;;;5087716;27;45509;-76
2022/11/20 13:51:44;;;;;;;;;13.75;13.50;;;;;;;;5091690;27;46229;-76
2022/11/20 13:54:09;;;;;;;;;12.75;11.00;;;;;;;;5093064;27;45631;-77
2022/11/20 13:56:50;;;;;;;;;10.75;10.00;;;;;;;;5089572;27;45354;-78
2022/11/20 13:59:18;;;;;;;;;13.00;13.00;;;;;;;;5085793;27;45552;-77
2022/11/20 14:01:45;;;;;;;;;18.75;17.75;;;;;;;;5081361;27;46336;-78
2022/11/20 14:04:13;;;;;;;;;17.25;14.75;;;;;;;;5083164;27;45321;-76
2022/11/20 14:06:41;;;;;;;;;15.50;14.75;;;;;;;;5083187;27;44965;-79
2022/11/20 14:09:10;;;;;;;;;14.00;13.50;;;;;;;;5098494;27;45390;-78
2022/11/20 14:11:36;;;;;;;;;25.75;23.50;;;;;;;;5095259;27;46373;-78
2022/11/20 14:14:13;;;;;;;;;18.00;16.00;;;;;;;;5091061;27;45364;-78
2022/11/20 14:16:38;;;;;;;;;38.25;34.75;;;;;;;;5095975;27;45385;-78
2022/11/20 14:19:19;;;;;;;;;18.00;17.75;;;;;;;;5083161;27;45617;-77
2022/11/20 14:21:44;;;;;;;;;59.25;48.25;;;;;;;;5080963;27;45453;-78
2022/11/20 14:24:10;;;;;;;;;5.75;5.75;;;;;;;;5083254;27;45362;-78
2022/11/20 14:26:37;;;;;;;;;14.25;12.00;;;;;;;;5081133;27;45193;-77
2022/11/20 14:29:03;;;;;;;;;23.50;19.00;;;;;;;;5081140;27;45863;-78
2022/11/20 14:31:28;;;;;;;;;25.25;21.00;;;;;;;;5083789;27;45702;-78
2022/11/20 14:33:54;;;;;;;;;21.00;18.25;;;;;;;;5085074;27;45293;-78
2022/11/20 14:36:23;;;;;;;;;29.75;25.25;;;;;;;;5083792;27;45236;-77
2022/11/20 14:38:49;;;;;;;;;87.25;76.25;;;;;;;;5083340;27;45426;-77
2022/11/20 14:41:19;;;;;;;;;18.00;13.00;;;;;;;;5088096;27;45438;-78
2022/11/20 14:43:49;;;;;;;;;42.75;36.75;;;;;;;;5092791;27;45291;-77
2022/11/20 14:46:15;;;;;;;;;13.00;10.75;;;;;;;;5089553;27;45475;-79
2022/11/20 14:48:47;;;;;;;;;10.25;10.00;;;;;;;;5093854;27;45877;-78
2022/11/20 14:51:24;;;;;;;;;12.00;10.00;;;;;;;;5092460;27;45245;-77
2022/11/20 14:53:50;;;;;;;;;12.75;11.25;;;;;;;;5092334;27;45299;-78